Time;durP1;ratioP1;P1;durP2;ratioP2;P2;SDS_P1;SDS_P2;PMS_P1;PMS_P2;Temp;Humidity;BMP_temperature;BMP_pressure;BME280_temperature;BME280_humidity;BME280_pressure;Samples;Min_cycle;Max_cycle;Signal;HPM_P1;HPM_P2
2022/05/12 00:02:25;;;;;;;13.93;13.13;;;;;;;;;;5068814;28;20031;-67
2022/05/12 00:04:50;;;;;;;13.30;12.48;;;;;;;;;;5068590;28;20070;-67
2022/05/12 00:07:16;;;;;;;13.55;12.43;;;;;;;;;;5068247;28;20047;-67
2022/05/12 00:09:41;;;;;;;12.57;11.88;;;;;;;;;;5072804;28;20027;-67
2022/05/12 00:12:07;;;;;;;12.75;12.00;;;;;;;;;;5068291;28;20106;-67
2022/05/12 00:14:33;;;;;;;13.00;12.20;;;;;;;;;;5067515;28;20024;-67
2022/05/12 00:16:58;;;;;;;12.40;11.65;;;;;;;;;;5068426;28;20046;-68
2022/05/12 00:19:26;;;;;;;11.65;10.95;;;;;;;;;;5068929;28;20044;-67
2022/05/12 00:21:52;;;;;;;12.88;12.07;;;;;;;;;;5069818;28;20111;-67
2022/05/12 00:24:19;;;;;;;10.98;10.27;;;;;;;;;;5068867;28;20442;-66
2022/05/12 00:26:44;;;;;;;11.15;10.43;;;;;;;;;;5067949;28;20064;-67
2022/05/12 00:29:10;;;;;;;10.95;10.25;;;;;;;;;;5068655;28;20509;-68
2022/05/12 00:31:37;;;;;;;12.00;11.20;;;;;;;;;;5084426;28;20020;-67
2022/05/12 00:34:04;;;;;;;11.52;10.82;;;;;;;;;;5067563;28;20659;-67
2022/05/12 00:36:30;;;;;;;11.32;10.63;;;;;;;;;;5067709;28;20059;-68
2022/05/12 00:38:55;;;;;;;12.30;11.50;;;;;;;;;;5067988;28;20059;-67
2022/05/12 00:41:21;;;;;;;10.48;9.88;;;;;;;;;;5067954;28;20032;-67
2022/05/12 00:43:51;;;;;;;11.15;10.48;;;;;;;;;;5067585;28;20035;-67
2022/05/12 00:46:19;;;;;;;9.88;9.27;;;;;;;;;;5067920;28;20150;-67
2022/05/12 00:48:46;;;;;;;10.30;9.70;;;;;;;;;;5067932;28;20585;-67
2022/05/12 00:51:15;;;;;;;9.93;9.25;;;;;;;;;;5068225;28;20024;-66
2022/05/12 00:53:41;;;;;;;9.93;9.32;;;;;;;;;;5067454;28;20077;-67
2022/05/12 00:56:11;;;;;;;11.77;11.07;;;;;;;;;;5066837;28;20381;-67
2022/05/12 00:58:37;;;;;;;9.57;8.98;;;;;;;;;;5067555;28;20020;-67
2022/05/12 01:01:06;;;;;;;9.23;8.52;;;;;;;;;;5067955;28;20513;-67
2022/05/12 01:03:32;;;;;;;8.98;8.38;;;;;;;;;;5067596;28;20513;-67
2022/05/12 01:05:58;;;;;;;9.38;8.77;;;;;;;;;;5067511;28;20087;-67
2022/05/12 01:08:24;;;;;;;12.15;11.45;;;;;;;;;;5067999;28;20093;-67
2022/05/12 01:10:53;;;;;;;11.55;9.15;;;;;;;;;;5066903;28;20111;-68
2022/05/12 01:13:20;;;;;;;8.80;8.23;;;;;;;;;;5066757;28;20037;-67
2022/05/12 01:15:55;;;;;;;13.18;12.38;;;;;;;;;;5067306;28;20020;-68
2022/05/12 01:18:21;;;;;;;14.02;13.18;;;;;;;;;;5066715;28;20159;-68
2022/05/12 01:20:48;;;;;;;10.98;10.27;;;;;;;;;;5067338;28;20032;-68
2022/05/12 01:23:39;;;;;;;10.63;10.00;;;;;;;;;;5066778;28;20021;-68
2022/05/12 01:26:13;;;;;;;12.30;11.60;;;;;;;;;;5066427;28;20127;-68
2022/05/12 01:28:39;;;;;;;13.38;12.57;;;;;;;;;;5066768;28;20068;-68
2022/05/12 01:31:05;;;;;;;14.77;13.77;;;;;;;;;;5067224;28;20068;-68
2022/05/12 01:33:31;;;;;;;13.10;12.30;;;;;;;;;;5066375;28;20078;-68
2022/05/12 01:35:57;;;;;;;13.50;12.70;;;;;;;;;;5065784;28;20553;-68
2022/05/12 01:38:22;;;;;;;12.98;12.18;;;;;;;;;;5067393;28;20103;-67
2022/05/12 01:40:48;;;;;;;13.52;12.73;;;;;;;;;;5066740;28;20078;-68
2022/05/12 01:43:15;;;;;;;13.88;13.07;;;;;;;;;;5066744;28;20032;-68
2022/05/12 01:45:41;;;;;;;13.63;12.82;;;;;;;;;;5066315;28;20427;-68
2022/05/12 01:48:09;;;;;;;12.07;11.38;;;;;;;;;;5066414;28;20122;-67
2022/05/12 01:50:36;;;;;;;13.00;11.80;;;;;;;;;;5065648;28;20442;-67
2022/05/12 01:53:03;;;;;;;13.68;12.88;;;;;;;;;;5066497;28;20063;-68
2022/05/12 01:55:29;;;;;;;14.38;13.57;;;;;;;;;;5066915;28;20017;-68
2022/05/12 01:57:57;;;;;;;11.77;11.07;;;;;;;;;;5066361;28;20094;-67
2022/05/12 02:00:26;;;;;;;10.98;10.30;;;;;;;;;;5066776;28;20026;-68
2022/05/12 02:02:53;;;;;;;9.57;8.98;;;;;;;;;;5065970;28;20040;-67
2022/05/12 02:05:19;;;;;;;10.82;10.13;;;;;;;;;;5066578;28;20697;-68
2022/05/12 02:07:47;;;;;;;10.05;9.40;;;;;;;;;;5066737;28;20036;-68
2022/05/12 02:10:18;;;;;;;9.05;8.45;;;;;;;;;;5068317;28;20084;-67
2022/05/12 02:12:43;;;;;;;7.65;7.15;;;;;;;;;;5066216;28;20033;-68
2022/05/12 02:15:09;;;;;;;8.05;7.55;;;;;;;;;;5065781;28;20115;-67
2022/05/12 02:17:35;;;;;;;7.75;7.22;;;;;;;;;;5066534;28;20016;-67
2022/05/12 02:20:01;;;;;;;8.43;7.85;;;;;;;;;;5065093;28;20036;-67
2022/05/12 02:22:27;;;;;;;9.18;8.57;;;;;;;;;;5066320;28;20121;-67
2022/05/12 02:24:52;;;;;;;9.05;8.45;;;;;;;;;;5065375;28;20138;-67
2022/05/12 02:27:18;;;;;;;8.48;7.88;;;;;;;;;;5066412;28;20040;-67
2022/05/12 02:29:43;;;;;;;7.47;6.97;;;;;;;;;;5065833;28;20028;-67
2022/05/12 02:32:09;;;;;;;8.38;7.88;;;;;;;;;;5066582;28;20512;-67
2022/05/12 02:34:34;;;;;;;8.85;8.25;;;;;;;;;;5066123;28;20518;-67
2022/05/12 02:37:01;;;;;;;10.30;9.70;;;;;;;;;;5065984;28;20113;-67
2022/05/12 02:39:37;;;;;;;8.70;8.10;;;;;;;;;;5065838;28;20039;-68
2022/05/12 02:42:04;;;;;;;8.98;8.38;;;;;;;;;;5065398;28;20051;-67
2022/05/12 02:44:30;;;;;;;9.68;9.07;;;;;;;;;;5066416;28;20781;-67
2022/05/12 02:46:56;;;;;;;8.90;8.30;;;;;;;;;;5066515;28;20131;-68
2022/05/12 02:49:21;;;;;;;10.65;10.02;;;;;;;;;;5064796;28;20051;-66
2022/05/12 02:51:47;;;;;;;10.45;9.75;;;;;;;;;;5066092;28;20166;-67
2022/05/12 02:54:14;;;;;;;10.18;9.57;;;;;;;;;;5081815;28;20069;-67
2022/05/12 02:56:39;;;;;;;11.48;10.77;;;;;;;;;;5066054;28;20034;-68
2022/05/12 02:59:06;;;;;;;9.25;8.55;;;;;;;;;;5066146;28;20028;-67
2022/05/12 03:01:32;;;;;;;9.32;8.73;;;;;;;;;;5066285;28;20024;-67
2022/05/12 03:03:58;;;;;;;9.45;8.85;;;;;;;;;;5065287;28;20526;-67
2022/05/12 03:06:24;;;;;;;11.00;10.32;;;;;;;;;;5065523;28;20186;-67
2022/05/12 03:08:50;;;;;;;10.45;9.85;;;;;;;;;;5059223;28;20104;-67
2022/05/12 03:11:15;;;;;;;11.93;11.23;;;;;;;;;;5065768;28;20442;-67
2022/05/12 03:13:40;;;;;;;12.27;11.57;;;;;;;;;;5065880;28;20029;-67
2022/05/12 03:16:06;;;;;;;11.20;10.50;;;;;;;;;;5065798;28;20028;-67
2022/05/12 03:18:31;;;;;;;11.38;10.68;;;;;;;;;;5065540;28;20039;-67
2022/05/12 03:20:57;;;;;;;11.45;10.75;;;;;;;;;;5063022;28;20025;-66
2022/05/12 03:23:23;;;;;;;10.73;10.10;;;;;;;;;;5065459;28;20028;-67
2022/05/12 03:25:51;;;;;;;10.65;10.05;;;;;;;;;;5065816;28;20054;-66
2022/05/12 03:28:16;;;;;;;13.07;12.18;;;;;;;;;;5065522;28;20024;-66
2022/05/12 03:30:43;;;;;;;11.43;10.73;;;;;;;;;;5065289;28;20017;-66
2022/05/12 03:33:09;;;;;;;10.07;9.48;;;;;;;;;;5064822;28;20436;-66
2022/05/12 03:35:36;;;;;;;10.52;9.90;;;;;;;;;;5065737;28;20481;-66
2022/05/12 03:38:02;;;;;;;10.82;10.13;;;;;;;;;;5065643;28;20032;-66
2022/05/12 03:40:28;;;;;;;10.32;9.70;;;;;;;;;;5065354;28;20032;-66
2022/05/12 03:42:58;;;;;;;9.98;9.30;;;;;;;;;;5068728;28;20040;-66
2022/05/12 03:45:27;;;;;;;9.25;8.65;;;;;;;;;;5069491;28;20580;-66
2022/05/12 03:47:54;;;;;;;8.82;8.23;;;;;;;;;;5067375;28;20040;-66
2022/05/12 03:50:24;;;;;;;11.07;10.40;;;;;;;;;;5069085;28;20020;-66
2022/05/12 03:52:51;;;;;;;9.30;8.70;;;;;;;;;;5068596;28;20185;-66
2022/05/12 03:55:18;;;;;;;9.07;8.48;;;;;;;;;;5069260;28;20028;-66
2022/05/12 03:57:45;;;;;;;11.43;10.73;;;;;;;;;;5069008;28;20501;-66
2022/05/12 04:00:15;;;;;;;9.93;9.32;;;;;;;;;;5069276;28;20032;-66
2022/05/12 04:02:41;;;;;;;8.45;7.95;;;;;;;;;;5068777;28;20032;-66
2022/05/12 04:05:07;;;;;;;8.27;7.72;;;;;;;;;;5067874;28;20525;-66
2022/05/12 04:07:33;;;;;;;10.80;10.15;;;;;;;;;;5068041;28;20040;-66
2022/05/12 04:10:02;;;;;;;8.55;8.00;;;;;;;;;;5069098;28;20034;-66
2022/05/12 04:12:27;;;;;;;7.15;6.65;;;;;;;;;;5068409;28;20123;-66
2022/05/12 04:14:53;;;;;;;8.73;8.13;;;;;;;;;;5068653;28;20116;-66
2022/05/12 04:17:18;;;;;;;7.50;7.00;;;;;;;;;;5068594;28;20036;-66
2022/05/12 04:19:45;;;;;;;9.20;8.60;;;;;;;;;;5069535;28;20029;-66
2022/05/12 04:22:13;;;;;;;7.82;7.32;;;;;;;;;;5068241;28;20044;-66
2022/05/12 04:24:38;;;;;;;8.00;7.50;;;;;;;;;;5068951;28;20021;-66
2022/05/12 04:27:04;;;;;;;8.60;8.02;;;;;;;;;;5067876;28;20029;-66
2022/05/12 04:29:30;;;;;;;8.90;8.25;;;;;;;;;;5063674;28;20029;-66
2022/05/12 04:31:55;;;;;;;7.40;6.90;;;;;;;;;;5068762;28;20024;-66
2022/05/12 04:37:05;;;;;;;8.95;8.35;;;;;;;;;;5068105;28;20107;-67
2022/05/12 04:39:32;;;;;;;8.40;7.80;;;;;;;;;;5068108;28;20442;-65
2022/05/12 04:41:57;;;;;;;7.18;6.68;;;;;;;;;;5067740;28;20111;-66
2022/05/12 04:44:23;;;;;;;8.40;7.80;;;;;;;;;;5067910;28;20111;-67
2022/05/12 04:46:48;;;;;;;9.35;8.75;;;;;;;;;;5068382;28;20044;-66
2022/05/12 04:49:14;;;;;;;8.68;8.15;;;;;;;;;;5068239;28;20043;-66
2022/05/12 04:51:40;;;;;;;9.68;9.07;;;;;;;;;;5068473;28;20665;-66
2022/05/12 04:54:09;;;;;;;10.30;9.68;;;;;;;;;;5067480;28;20036;-67
2022/05/12 04:56:38;;;;;;;10.85;10.18;;;;;;;;;;5068218;28;20055;-66
2022/05/12 04:59:05;;;;;;;11.68;10.98;;;;;;;;;;5067280;28;20036;-66
2022/05/12 05:01:31;;;;;;;9.80;9.20;;;;;;;;;;5067549;28;20115;-66
2022/05/12 05:04:00;;;;;;;9.48;8.88;;;;;;;;;;5067478;28;20111;-66
2022/05/12 05:06:29;;;;;;;12.30;11.60;;;;;;;;;;5067952;28;20032;-68
2022/05/12 05:08:54;;;;;;;10.40;9.77;;;;;;;;;;5067874;28;20035;-67
2022/05/12 05:11:20;;;;;;;10.43;9.77;;;;;;;;;;5067480;28;20215;-66
2022/05/12 05:13:45;;;;;;;13.55;12.75;;;;;;;;;;5067261;28;20608;-67
2022/05/12 05:16:11;;;;;;;13.38;12.57;;;;;;;;;;5066896;28;20017;-66
2022/05/12 05:18:38;;;;;;;12.10;11.40;;;;;;;;;;5065631;28;20351;-66
2022/05/12 05:21:04;;;;;;;10.95;10.30;;;;;;;;;;5067318;28;20029;-66
2022/05/12 05:23:30;;;;;;;11.05;10.35;;;;;;;;;;5067962;28;20418;-67
2022/05/12 05:25:56;;;;;;;9.40;8.80;;;;;;;;;;5067278;28;20055;-67
2022/05/12 05:28:21;;;;;;;9.30;8.70;;;;;;;;;;5067172;28;20056;-67
2022/05/12 05:30:47;;;;;;;11.48;10.77;;;;;;;;;;5067242;28;20020;-67
2022/05/12 05:33:12;;;;;;;12.23;11.52;;;;;;;;;;5067428;28;20438;-66
2022/05/12 05:35:38;;;;;;;11.30;10.60;;;;;;;;;;5067243;28;20097;-67
2022/05/12 05:38:04;;;;;;;11.05;10.38;;;;;;;;;;5067245;28;20035;-67
2022/05/12 05:40:29;;;;;;;8.93;8.35;;;;;;;;;;5067492;28;20032;-68
2022/05/12 05:42:56;;;;;;;9.48;8.88;;;;;;;;;;5069621;28;20655;-68
2022/05/12 05:45:23;;;;;;;8.27;7.78;;;;;;;;;;5067128;28;20035;-67
2022/05/12 05:47:55;;;;;;;10.02;9.43;;;;;;;;;;5066848;28;20028;-67
2022/05/12 05:53:36;;;;;;;7.88;7.38;;;;;;;;;;5066455;28;20035;-67
2022/05/12 05:56:05;;;;;;;9.95;9.35;;;;;;;;;;5065765;28;21761;-67
2022/05/12 05:58:30;;;;;;;9.43;8.82;;;;;;;;;;5066795;28;20024;-68
2022/05/12 06:00:56;;;;;;;9.20;8.60;;;;;;;;;;5066568;28;20044;-68
2022/05/12 06:03:24;;;;;;;9.25;8.65;;;;;;;;;;5066122;28;20040;-68
2022/05/12 06:05:50;;;;;;;10.30;9.70;;;;;;;;;;5065806;28;20059;-67
2022/05/12 06:08:17;;;;;;;10.55;9.85;;;;;;;;;;5066351;28;20446;-68
2022/05/12 06:10:44;;;;;;;10.77;10.07;;;;;;;;;;5066703;28;20028;-68
2022/05/12 06:13:11;;;;;;;11.27;10.57;;;;;;;;;;5066506;28;20147;-68
2022/05/12 06:15:37;;;;;;;11.10;10.40;;;;;;;;;;5066623;28;20095;-68
2022/05/12 06:18:15;;;;;;;11.93;11.23;;;;;;;;;;5065617;28;20466;-68
2022/05/12 06:20:42;;;;;;;12.00;11.30;;;;;;;;;;5065396;28;20031;-68
2022/05/12 06:23:09;;;;;;;11.27;10.57;;;;;;;;;;5066701;28;20031;-68
2022/05/12 06:25:35;;;;;;;11.88;11.05;;;;;;;;;;5066616;28;20047;-68
2022/05/12 06:28:00;;;;;;;13.50;12.70;;;;;;;;;;5064739;28;20480;-68
2022/05/12 06:30:27;;;;;;;14.00;13.20;;;;;;;;;;5067558;28;20028;-68
2022/05/12 06:32:56;;;;;;;15.23;14.32;;;;;;;;;;5065543;28;20024;-69
2022/05/12 06:35:22;;;;;;;14.60;13.80;;;;;;;;;;5066615;28;20086;-68
2022/05/12 06:37:47;;;;;;;14.55;13.75;;;;;;;;;;5066785;28;20119;-69
2022/05/12 06:40:13;;;;;;;15.98;15.07;;;;;;;;;;5066259;28;20562;-68
2022/05/12 06:42:41;;;;;;;18.70;17.60;;;;;;;;;;5066851;28;20036;-69
2022/05/12 06:45:09;;;;;;;18.70;17.70;;;;;;;;;;5066057;28;20033;-68
2022/05/12 06:47:34;;;;;;;19.45;18.35;;;;;;;;;;5065967;28;20644;-69
2022/05/12 06:50:02;;;;;;;20.13;19.02;;;;;;;;;;5065758;28;20040;-68
2022/05/12 06:52:28;;;;;;;20.90;19.80;;;;;;;;;;5066975;28;20021;-69
2022/05/12 06:54:53;;;;;;;16.38;15.48;;;;;;;;;;5066848;28;20024;-68
2022/05/12 06:57:21;;;;;;;15.95;15.05;;;;;;;;;;5067086;28;20063;-69
2022/05/12 06:59:47;;;;;;;17.98;17.00;;;;;;;;;;5065860;28;20036;-68
2022/05/12 07:02:12;;;;;;;16.80;15.45;;;;;;;;;;5066265;28;20028;-68
2022/05/12 07:04:37;;;;;;;16.70;15.77;;;;;;;;;;5066401;28;20120;-68
2022/05/12 07:07:05;;;;;;;14.48;13.68;;;;;;;;;;5066582;28;20036;-67
2022/05/12 07:09:31;;;;;;;19.73;18.45;;;;;;;;;;5066470;28;20102;-68
2022/05/12 07:11:56;;;;;;;16.33;15.43;;;;;;;;;;5066227;28;20448;-67
2022/05/12 07:14:22;;;;;;;17.95;16.77;;;;;;;;;;5064968;28;20660;-67
2022/05/12 07:16:47;;;;;;;20.73;19.60;;;;;;;;;;5069575;28;20034;-68
2022/05/12 07:19:15;;;;;;;23.27;22.05;;;;;;;;;;5069965;28;20146;-68
2022/05/12 07:27:18;;;;;;;15.18;14.30;;;;;;;;;;5069963;28;20031;-67
2022/05/12 07:29:43;;;;;;;14.43;13.63;;;;;;;;;;5070245;28;20166;-67
2022/05/12 07:32:09;;;;;;;16.40;15.50;;;;;;;;;;5070242;28;20127;-67
2022/05/12 07:34:35;;;;;;;18.40;17.30;;;;;;;;;;5069474;28;20033;-67
2022/05/12 07:37:01;;;;;;;24.60;23.30;;;;;;;;;;5067408;28;20033;-67
2022/05/12 07:39:29;;;;;;;16.95;15.95;;;;;;;;;;5069845;28;20020;-67
2022/05/12 07:41:56;;;;;;;17.90;16.83;;;;;;;;;;5068943;28;20040;-67
2022/05/12 07:44:22;;;;;;;14.52;13.73;;;;;;;;;;5069179;28;20094;-66
2022/05/12 07:46:49;;;;;;;15.57;14.68;;;;;;;;;;5068772;28;20089;-67
2022/05/12 07:49:15;;;;;;;17.73;16.60;;;;;;;;;;5069490;28;20040;-67
2022/05/12 07:51:40;;;;;;;19.27;18.23;;;;;;;;;;5069639;28;20021;-68
2022/05/12 07:54:05;;;;;;;16.83;15.93;;;;;;;;;;5069792;28;20024;-67
2022/05/12 07:56:31;;;;;;;19.08;18.05;;;;;;;;;;5069646;28;20032;-67
2022/05/12 07:58:58;;;;;;;16.88;15.95;;;;;;;;;;5068657;28;20036;-68
2022/05/12 08:01:25;;;;;;;15.75;14.85;;;;;;;;;;5068573;28;20036;-67
2022/05/12 08:03:51;;;;;;;16.33;15.43;;;;;;;;;;5068943;28;20029;-67
2022/05/12 08:06:17;;;;;;;16.40;15.50;;;;;;;;;;5069522;28;20032;-67
2022/05/12 08:08:44;;;;;;;14.85;13.95;;;;;;;;;;5066849;28;20034;-67
2022/05/12 08:11:10;;;;;;;15.00;14.15;;;;;;;;;;5069231;28;20024;-67
2022/05/12 08:13:37;;;;;;;15.15;14.05;;;;;;;;;;5070911;28;20032;-67
2022/05/12 08:16:04;;;;;;;19.50;18.40;;;;;;;;;;5068573;28;20098;-66
2022/05/12 08:18:32;;;;;;;20.10;18.90;;;;;;;;;;5069616;28;20081;-67
2022/05/12 08:20:58;;;;;;;17.35;16.02;;;;;;;;;;5068410;28;20013;-66
2022/05/12 08:23:23;;;;;;;18.00;16.98;;;;;;;;;;5069342;28;20016;-67
2022/05/12 08:25:50;;;;;;;18.50;17.42;;;;;;;;;;5068991;28;20034;-66
2022/05/12 08:28:21;;;;;;;17.92;16.92;;;;;;;;;;5067948;28;20032;-68
2022/05/12 08:30:48;;;;;;;18.85;17.85;;;;;;;;;;5068939;28;20025;-67
2022/05/12 08:33:14;;;;;;;14.13;13.32;;;;;;;;;;5068636;28;20116;-67
2022/05/12 08:35:40;;;;;;;11.27;10.57;;;;;;;;;;5067839;28;20123;-66
2022/05/12 08:38:06;;;;;;;13.30;12.50;;;;;;;;;;5068314;28;20025;-67
2022/05/12 08:40:46;;;;;;;11.38;10.68;;;;;;;;;;5067765;28;20106;-67
2022/05/12 08:43:23;;;;;;;;;;;;;;;;;;5068106;28;20037;-66
2022/05/12 08:45:50;;;;;;;11.15;10.38;;;;;;;;;;5068729;28;19947;-67
2022/05/12 08:48:16;;;;;;;10.68;9.98;;;;;;;;;;5068465;28;20041;-67
2022/05/12 08:50:42;;;;;;;12.77;12.02;;;;;;;;;;5068641;28;20039;-67
2022/05/12 08:53:15;;;;;;;16.30;15.40;;;;;;;;;;5068407;28;20032;-67
2022/05/12 08:55:50;;;;;;;12.88;12.13;;;;;;;;;;5067786;28;20025;-67
2022/05/12 08:58:19;;;;;;;12.27;11.57;;;;;;;;;;5068171;28;20119;-67
2022/05/12 09:01:17;;;;;;;14.07;13.27;;;;;;;;;;5067511;28;20097;-67
2022/05/12 09:04:23;;;;;;;11.32;10.63;;;;;;;;;;5066705;28;20539;-67
2022/05/12 09:07:07;;;;;;;14.02;13.23;;;;;;;;;;5067143;28;20108;-66
2022/05/12 09:09:51;;;;;;;13.15;12.35;;;;;;;;;;5068161;28;20020;-67
2022/05/12 09:12:42;;;;;;;14.55;13.75;;;;;;;;;;5067305;28;20029;-67
2022/05/12 09:15:12;;;;;;;12.98;12.23;;;;;;;;;;5068032;28;20032;-67
2022/05/12 09:17:58;;;;;;;14.02;13.13;;;;;;;;;;5067974;28;20074;-67
2022/05/12 09:20:25;;;;;;;12.00;11.30;;;;;;;;;;5057704;28;20035;-67
2022/05/12 09:22:51;;;;;;;16.77;15.55;;;;;;;;;;5067271;28;20028;-66
2022/05/12 09:25:41;;;;;;;15.10;14.25;;;;;;;;;;5067990;28;20457;-67
2022/05/12 09:28:24;;;;;;;20.10;19.00;;;;;;;;;;5066447;28;20040;-67
2022/05/12 09:30:50;;;;;;;14.85;14.05;;;;;;;;;;5067079;28;20168;-67
2022/05/12 09:33:29;;;;;;;15.50;14.60;;;;;;;;;;5067010;28;20111;-67
2022/05/12 09:36:00;;;;;;;13.60;12.80;;;;;;;;;;5067061;28;20028;-68
2022/05/12 09:38:26;;;;;;;17.13;16.13;;;;;;;;;;5067104;28;20024;-67
2022/05/12 09:40:53;;;;;;;26.08;24.67;;;;;;;;;;5065899;28;20036;-66
2022/05/12 09:43:25;;;;;;;27.60;26.13;;;;;;;;;;5066800;28;20482;-67
2022/05/12 09:46:02;;;;;;;26.33;24.92;;;;;;;;;;5067536;28;20033;-68
2022/05/12 09:48:31;;;;;;;26.88;25.45;;;;;;;;;;5066733;28;20378;-68
2022/05/12 09:51:22;;;;;;;30.88;29.25;;;;;;;;;;5066290;28;20032;-67
2022/05/12 09:53:51;;;;;;;36.90;35.00;;;;;;;;;;5066399;28;20265;-67
2022/05/12 09:56:32;;;;;;;22.75;21.55;;;;;;;;;;5067173;28;20025;-68
2022/05/12 09:59:03;;;;;;;41.33;39.17;;;;;;;;;;5079031;28;20112;-67
2022/05/12 10:01:30;;;;;;;18.02;17.02;;;;;;;;;;5067499;28;20477;-68
2022/05/12 10:09:53;;;;;;;18.77;17.77;;;;;;;;;;5066417;28;20022;-67
2022/05/12 10:12:25;;;;;;;45.67;43.38;;;;;;;;;;5059933;28;20025;-67
2022/05/12 10:14:59;;;;;;;59.70;56.72;;;;;;;;;;5066181;28;20027;-67
2022/05/12 10:17:41;;;;;;;47.58;45.13;;;;;;;;;;5066724;28;20028;-67
2022/05/12 10:20:11;;;;;;;65.43;62.13;;;;;;;;;;5067354;28;20040;-67
2022/05/12 10:23:02;;;;;;;36.65;34.75;;;;;;;;;;5066889;28;20028;-67
2022/05/12 10:25:58;;;;;;;39.72;37.70;;;;;;;;;;5066816;28;20032;-67
2022/05/12 10:28:37;;;;;;;47.78;45.38;;;;;;;;;;5066249;28;20576;-67
2022/05/12 10:31:25;;;;;;;35.38;33.58;;;;;;;;;;5066073;28;20195;-67
2022/05/12 10:34:12;;;;;;;20.05;18.95;;;;;;;;;;5057528;28;20041;-66
2022/05/12 10:36:59;;;;;;;24.10;22.80;;;;;;;;;;5066591;28;20094;-66
2022/05/12 10:39:41;;;;;;;54.05;51.33;;;;;;;;;;5066086;28;20090;-66
2022/05/12 10:42:26;;;;;;;25.58;24.20;;;;;;;;;;5066195;28;20036;-67
2022/05/12 10:45:19;;;;;;;34.85;33.05;;;;;;;;;;5066703;28;20024;-66
2022/05/12 10:47:50;;;;;;;42.47;40.33;;;;;;;;;;5065889;28;20040;-66
2022/05/12 10:50:22;;;;;;;33.40;31.67;;;;;;;;;;5066076;28;20485;-66
2022/05/12 10:53:12;;;;;;;27.30;25.83;;;;;;;;;;5066342;28;20520;-66
2022/05/12 10:55:51;;;;;;;48.75;46.25;;;;;;;;;;5066553;28;20028;-66
2022/05/12 10:58:35;;;;;;;50.35;47.78;;;;;;;;;;5065667;28;20043;-63
2022/05/12 11:01:12;;;;;;;49.30;46.80;;;;;;;;;;5066460;28;20083;-62
2022/05/12 11:03:43;;;;;;;54.20;51.50;;;;;;;;;;5065888;28;20055;-62
2022/05/12 11:06:13;;;;;;;54.88;52.10;;;;;;;;;;5065142;28;20021;-63
2022/05/12 11:08:44;;;;;;;58.85;55.88;;;;;;;;;;5066333;28;20055;-62
2022/05/12 11:11:17;;;;;;;40.28;38.20;;;;;;;;;;5065571;28;20500;-62
2022/05/12 11:14:18;;;;;;;31.20;29.58;;;;;;;;;;5066016;28;20446;-62
2022/05/12 11:17:08;;;;;;;35.28;33.45;;;;;;;;;;5053444;28;20059;-65
2022/05/12 11:19:35;;;;;;;21.55;20.38;;;;;;;;;;5065677;28;20047;-67
2022/05/12 11:22:46;;;;;;;40.92;38.85;;;;;;;;;;5066143;28;20156;-66
2022/05/12 11:25:18;;;;;;;23.42;22.15;;;;;;;;;;5055346;28;20040;-67
2022/05/12 11:30:53;;;;;;;40.83;38.72;;;;;;;;;;5065904;28;20048;-68
2022/05/12 11:33:39;;;;;;;46.67;44.33;;;;;;;;;;5065792;28;20537;-67
2022/05/12 11:36:08;;;;;;;56.08;53.28;;;;;;;;;;5064943;28;20056;-66
2022/05/12 11:38:40;;;;;;;47.17;44.75;;;;;;;;;;5065896;28;20032;-67
2022/05/12 11:41:27;;;;;;;58.67;55.72;;;;;;;;;;5064883;28;20040;-66
2022/05/12 11:44:34;;;;;;;59.42;56.40;;;;;;;;;;5065283;28;20028;-67
2022/05/12 11:47:43;;;;;;;50.83;48.22;;;;;;;;;;5063869;28;20056;-67
2022/05/12 11:50:42;;;;;;;55.65;52.83;;;;;;;;;;5056954;28;20123;-66
2022/05/12 11:53:24;;;;;;;60.72;57.72;;;;;;;;;;5066174;28;20485;-66
2022/05/12 11:56:37;;;;;;;57.50;54.58;;;;;;;;;;5064714;28;20047;-66
2022/05/12 11:59:26;;;;;;;60.42;57.22;;;;;;;;;;5064099;28;20032;-67
2022/05/12 12:02:04;;;;;;;64.75;61.45;;;;;;;;;;5065004;28;20112;-66
2022/05/12 12:04:49;;;;;;;50.17;47.63;;;;;;;;;;5068287;28;20036;-67
2022/05/12 12:07:16;;;;;;;58.53;55.60;;;;;;;;;;5069242;28;20583;-66
2022/05/12 12:09:44;;;;;;;41.40;39.28;;;;;;;;;;5069584;28;20362;-66
2022/05/12 12:12:31;;;;;;;84.93;80.72;;;;;;;;;;5084970;28;20031;-66
2022/05/12 12:15:01;;;;;;;62.78;59.63;;;;;;;;;;5067986;28;20166;-66
2022/05/12 12:17:39;;;;;;;55.17;52.30;;;;;;;;;;5068487;28;20382;-66
2022/05/12 12:20:05;;;;;;;51.78;49.13;;;;;;;;;;5068210;28;20119;-66
2022/05/12 12:22:43;;;;;;;42.55;40.40;;;;;;;;;;5067779;28;20124;-65
2022/05/12 12:25:08;;;;;;;49.28;46.63;;;;;;;;;;5085105;28;20039;-67
2022/05/12 12:28:05;;;;;;;40.05;38.03;;;;;;;;;;5068592;28;20040;-67
2022/05/12 12:30:30;;;;;;;43.70;41.47;;;;;;;;;;5068198;28;20616;-65
2022/05/12 12:33:14;;;;;;;34.83;33.05;;;;;;;;;;5067189;28;20111;-65
2022/05/12 12:36:01;;;;;;;37.08;35.17;;;;;;;;;;5067964;28;20115;-67
2022/05/12 12:38:46;;;;;;;33.95;32.20;;;;;;;;;;5067638;28;20532;-65
2022/05/12 12:41:28;;;;;;;37.63;35.70;;;;;;;;;;5068867;28;20102;-66
2022/05/12 12:44:03;;;;;;;38.72;36.67;;;;;;;;;;5068347;28;20090;-62
2022/05/12 12:46:37;;;;;;;34.03;32.25;;;;;;;;;;5068250;28;20107;-61
2022/05/12 12:49:21;;;;;;;34.25;32.47;;;;;;;;;;5067489;28;20032;-63
2022/05/12 12:52:05;;;;;;;39.33;37.30;;;;;;;;;;5067718;28;20025;-62
2022/05/12 12:57:22;;;;;;;34.80;33.00;;;;;;;;;;5068088;28;20030;-62
2022/05/12 13:00:16;;;;;;;35.05;33.25;;;;;;;;;;5067755;28;20028;-63
2022/05/12 13:02:44;;;;;;;34.33;32.58;;;;;;;;;;5059167;28;20116;-63
2022/05/12 13:05:22;;;;;;;35.88;34.05;;;;;;;;;;5067542;28;20355;-62
2022/05/12 13:07:56;;;;;;;38.38;36.35;;;;;;;;;;5067903;28;20025;-63
2022/05/12 13:10:22;;;;;;;38.55;36.60;;;;;;;;;;5067879;28;20498;-62
2022/05/12 13:13:05;;;;;;;37.72;35.83;;;;;;;;;;5067324;28;20036;-62
2022/05/12 13:15:39;;;;;;;42.30;40.13;;;;;;;;;;5066764;28;20115;-63
2022/05/12 13:18:07;;;;;;;40.08;38.08;;;;;;;;;;5066973;28;20028;-63
2022/05/12 13:20:39;;;;;;;41.45;39.35;;;;;;;;;;5067644;28;20040;-63
2022/05/12 13:23:08;;;;;;;38.72;36.78;;;;;;;;;;5067453;28;20046;-62
2022/05/12 13:25:37;;;;;;;38.17;36.17;;;;;;;;;;5066629;28;20480;-63
2022/05/12 13:28:07;;;;;;;37.10;35.20;;;;;;;;;;5066349;28;20119;-62
2022/05/12 13:30:44;;;;;;;37.28;35.38;;;;;;;;;;5067490;28;20597;-62
2022/05/12 13:33:09;;;;;;;37.28;35.38;;;;;;;;;;5066728;28;20043;-63
2022/05/12 13:35:35;;;;;;;42.28;40.13;;;;;;;;;;5067414;28;20028;-62
2022/05/12 13:38:07;;;;;;;39.03;37.03;;;;;;;;;;5067129;28;20036;-63
2022/05/12 13:40:52;;;;;;;38.45;36.45;;;;;;;;;;5067119;28;20017;-62
2022/05/12 13:43:31;;;;;;;38.85;36.85;;;;;;;;;;5066959;28;20028;-62
2022/05/12 13:46:27;;;;;;;37.60;35.70;;;;;;;;;;5066515;28;20124;-62
2022/05/12 13:49:05;;;;;;;37.03;35.13;;;;;;;;;;5066575;28;20032;-62
2022/05/12 13:51:41;;;;;;;40.25;38.22;;;;;;;;;;5065744;28;20032;-62
2022/05/12 13:54:10;;;;;;;40.70;38.60;;;;;;;;;;5067313;28;20020;-61
2022/05/12 13:56:38;;;;;;;41.15;39.05;;;;;;;;;;5067147;28;20105;-62
2022/05/12 13:59:21;;;;;;;43.22;41.03;;;;;;;;;;5066429;28;20458;-62
2022/05/12 14:01:47;;;;;;;39.78;37.65;;;;;;;;;;5066091;28;20767;-62
2022/05/12 14:04:21;;;;;;;38.30;36.30;;;;;;;;;;5066257;28;20115;-62
2022/05/12 14:06:54;;;;;;;35.42;33.63;;;;;;;;;;5064529;28;20473;-61
2022/05/12 14:09:24;;;;;;;40.92;38.83;;;;;;;;;;5065767;28;20425;-62
2022/05/12 14:11:59;;;;;;;35.60;33.78;;;;;;;;;;5064518;28;20107;-63
2022/05/12 14:20:15;;;;;;;40.25;38.20;;;;;;;;;;5065715;28;20032;-62
2022/05/12 14:22:42;;;;;;;37.35;35.45;;;;;;;;;;5065017;28;20607;-62
2022/05/12 14:25:09;;;;;;;40.35;38.30;;;;;;;;;;5065691;28;20036;-63
2022/05/12 14:27:34;;;;;;;39.97;37.95;;;;;;;;;;5065165;28;20504;-61
2022/05/12 14:30:00;;;;;;;42.50;40.35;;;;;;;;;;5066342;28;20028;-62
2022/05/12 14:32:35;;;;;;;38.95;36.95;;;;;;;;;;5066248;28;20017;-62
2022/05/12 14:35:00;;;;;;;42.35;40.20;;;;;;;;;;5065180;28;20093;-62
2022/05/12 14:37:26;;;;;;;41.13;39.03;;;;;;;;;;5065611;28;20454;-62
2022/05/12 14:39:51;;;;;;;40.22;38.20;;;;;;;;;;5067244;28;20025;-65
2022/05/12 14:42:17;;;;;;;44.05;41.80;;;;;;;;;;5066515;28;20036;-65
2022/05/12 14:44:43;;;;;;;42.47;40.30;;;;;;;;;;5065178;28;20063;-65
2022/05/12 14:47:14;;;;;;;45.33;43.03;;;;;;;;;;5066175;28;20032;-65
2022/05/12 14:49:44;;;;;;;45.40;43.13;;;;;;;;;;5065682;28;20042;-64
2022/05/12 14:52:13;;;;;;;42.58;40.38;;;;;;;;;;5066358;28;20090;-65
2022/05/12 14:54:41;;;;;;;46.13;43.78;;;;;;;;;;5066282;28;20043;-65
2022/05/12 14:57:07;;;;;;;43.20;41.00;;;;;;;;;;5065411;28;20032;-66
2022/05/12 14:59:32;;;;;;;47.38;44.92;;;;;;;;;;5066267;28;20078;-64
2022/05/12 15:01:59;;;;;;;45.30;43.00;;;;;;;;;;5065074;28;20125;-66
2022/05/12 15:04:30;;;;;;;39.90;37.83;;;;;;;;;;5065954;28;20056;-65
2022/05/12 15:06:56;;;;;;;40.05;37.97;;;;;;;;;;5080913;28;20028;-65
2022/05/12 15:09:22;;;;;;;39.17;37.17;;;;;;;;;;5066005;28;20032;-65
2022/05/12 15:11:48;;;;;;;36.80;34.95;;;;;;;;;;5067580;28;20046;-65
2022/05/12 15:14:13;;;;;;;39.85;37.80;;;;;;;;;;5065177;28;20417;-64